Time;durP1;ratioP1;P1;durP2;ratioP2;P2;SDS_P1;SDS_P2;PMS_P1;PMS_P2;Temp;Humidity;BMP_temperature;BMP_pressure;BME280_temperature;BME280_humidity;BME280_pressure;Samples;Min_cycle;Max_cycle;Signal;HPM_P1;HPM_P2
2022/10/31 00:02:25;;;;;;;13.23;10.38;;;12.60;99.90;;;;;;5082020;28;20044;-76
2022/10/31 00:04:51;;;;;;;10.38;8.73;;;12.70;99.90;;;;;;5084104;28;20033;-77
2022/10/31 00:07:17;;;;;;;16.23;10.70;;;12.60;99.90;;;;;;5073103;28;20020;-76
2022/10/31 00:09:42;;;;;;;21.13;10.63;;;12.70;99.90;;;;;;5105114;28;20100;-77
2022/10/31 00:12:08;;;;;;;15.88;11.88;;;12.70;99.90;;;;;;5105439;28;20028;-77
2022/10/31 00:14:34;;;;;;;15.63;12.90;;;12.70;99.90;;;;;;5088565;28;20020;-77
2022/10/31 00:16:59;;;;;;;18.88;13.07;;;12.70;99.90;;;;;;5104664;28;20096;-76
2022/10/31 00:19:25;;;;;;;16.58;10.40;;;12.80;99.90;;;;;;5085451;28;20032;-77
2022/10/31 00:21:54;;;;;;;14.10;11.63;;;12.80;99.90;;;;;;5087835;28;20028;-77
2022/10/31 00:24:20;;;;;;;18.13;12.43;;;12.80;99.90;;;;;;5085074;28;20097;-76
2022/10/31 00:26:45;;;;;;;17.73;13.25;;;12.90;99.90;;;;;;5086375;28;20021;-77
2022/10/31 00:29:12;;;;;;;14.77;11.45;;;12.90;99.90;;;;;;5068518;28;20178;-77
2022/10/31 00:31:38;;;;;;;16.80;11.65;;;12.80;99.90;;;;;;5068318;28;20058;-77
2022/10/31 00:34:04;;;;;;;20.98;13.43;;;12.80;99.90;;;;;;5068415;28;20127;-76
2022/10/31 00:36:30;;;;;;;15.70;11.40;;;12.90;99.90;;;;;;5086144;28;20055;-76
2022/10/31 00:38:57;;;;;;;15.73;10.75;;;12.90;99.90;;;;;;5068134;28;20067;-76
2022/10/31 00:41:23;;;;;;;13.25;9.07;;;13.00;99.90;;;;;;5086344;28;20115;-76
2022/10/31 00:43:50;;;;;;;13.80;8.65;;;12.90;99.90;;;;;;5084696;28;20039;-76
2022/10/31 00:46:16;;;;;;;16.08;11.57;;;12.80;99.90;;;;;;5084686;28;20424;-77
2022/10/31 00:48:42;;;;;;;15.48;10.50;;;12.70;99.90;;;;;;5086306;28;20024;-77
2022/10/31 00:51:08;;;;;;;23.33;11.85;;;12.70;99.90;;;;;;5084704;28;20058;-76
2022/10/31 00:53:34;;;;;;;18.38;11.60;;;12.70;99.90;;;;;;5084634;28;20119;-77
2022/10/31 00:56:00;;;;;;;14.57;11.45;;;12.70;99.90;;;;;;5101831;28;20029;-76
2022/10/31 00:58:26;;;;;;;12.38;11.07;;;12.70;99.90;;;;;;5084471;28;20028;-76
2022/10/31 01:00:54;;;;;;;21.55;11.45;;;12.60;99.90;;;;;;5067998;28;20078;-77
2022/10/31 01:03:25;;;;;;;20.40;13.35;;;12.70;99.90;;;;;;5084525;28;20051;-76
2022/10/31 01:06:00;;;;;;;16.45;13.32;;;12.60;99.90;;;;;;5086090;28;20052;-77
2022/10/31 01:08:26;;;;;;;16.98;12.75;;;12.60;99.90;;;;;;5101338;28;20025;-77
2022/10/31 01:11:04;;;;;;;20.33;13.43;;;12.70;99.90;;;;;;5084898;28;20017;-76
2022/10/31 01:13:32;;;;;;;15.60;12.65;;;12.60;99.90;;;;;;5087160;28;20044;-77
2022/10/31 01:15:59;;;;;;;18.63;14.70;;;12.70;99.90;;;;;;5104286;28;20024;-77
2022/10/31 01:18:26;;;;;;;14.82;13.40;;;12.70;99.90;;;;;;5106125;28;20051;-78
2022/10/31 01:21:00;;;;;;;18.52;11.90;;;12.70;99.90;;;;;;5088100;28;20028;-78
2022/10/31 01:23:27;;;;;;;16.52;13.35;;;12.80;99.90;;;;;;5094772;28;20032;-77
2022/10/31 01:26:05;;;;;;;15.25;12.70;;;12.70;99.90;;;;;;5067923;28;20027;-77
2022/10/31 01:28:32;;;;;;;12.77;11.45;;;12.70;99.90;;;;;;5085738;28;20025;-78
2022/10/31 01:31:07;;;;;;;14.75;12.70;;;12.60;99.90;;;;;;5084538;28;20021;-78
2022/10/31 01:33:34;;;;;;;15.15;13.63;;;12.60;99.90;;;;;;5067943;28;20024;-78
2022/10/31 01:36:00;;;;;;;25.10;14.93;;;12.60;99.90;;;;;;5067822;28;20115;-78
2022/10/31 01:38:26;;;;;;;21.05;15.70;;;12.60;99.90;;;;;;5084278;28;20028;-79
2022/10/31 01:40:52;;;;;;;24.20;13.52;;;12.50;99.90;;;;;;5084496;28;20032;-78
2022/10/31 01:43:19;;;;;;;16.00;14.48;;;12.50;99.90;;;;;;5069062;28;20035;-78
2022/10/31 01:45:51;;;;;;;24.38;14.63;;;12.50;99.90;;;;;;5084365;28;20028;-78
2022/10/31 01:48:20;;;;;;;17.95;13.50;;;12.40;99.90;;;;;;5084452;28;20029;-78
2022/10/31 01:50:48;;;;;;;35.85;13.73;;;12.40;99.90;;;;;;5085509;28;20023;-78
2022/10/31 01:53:16;;;;;;;21.83;15.18;;;12.40;99.90;;;;;;5084157;28;20056;-78
2022/10/31 01:55:44;;;;;;;16.00;12.23;;;12.50;99.90;;;;;;5084339;28;20032;-77
2022/10/31 01:58:22;;;;;;;28.83;14.70;;;12.50;99.90;;;;;;5067995;28;20024;-78
2022/10/31 02:00:53;;;;;;;18.88;13.98;;;12.40;99.90;;;;;;5084019;28;20032;-78
2022/10/31 02:03:21;;;;;;;25.17;14.23;;;12.30;99.90;;;;;;5083820;28;20651;-77
2022/10/31 02:05:47;;;;;;;21.67;16.45;;;12.30;99.90;;;;;;5084202;28;20365;-78
2022/10/31 02:08:27;;;;;;;16.05;14.13;;;12.20;99.90;;;;;;5050765;28;20024;-78
2022/10/31 02:10:54;;;;;;;27.45;16.83;;;12.10;99.90;;;;;;5083994;28;20362;-77
2022/10/31 02:13:22;;;;;;;17.67;15.27;;;12.10;99.90;;;;;;5070825;28;20031;-78
2022/10/31 02:15:52;;;;;;;24.27;15.63;;;12.10;99.90;;;;;;5104329;28;20025;-77
2022/10/31 02:18:19;;;;;;;17.38;14.93;;;12.10;99.90;;;;;;5104330;28;20063;-78
2022/10/31 02:21:13;;;;;;;24.10;15.15;;;12.10;99.90;;;;;;5104027;28;20016;-77
2022/10/31 02:23:57;;;;;;;25.10;15.63;;;12.10;99.90;;;;;;5083710;28;20047;-78
2022/10/31 02:26:50;;;;;;;19.25;15.20;;;12.10;99.90;;;;;;5068402;28;20067;-77
2022/10/31 02:29:28;;;;;;;16.90;14.95;;;12.10;99.90;;;;;;5079618;28;20027;-78
2022/10/31 02:32:02;;;;;;;22.77;15.15;;;12.10;99.90;;;;;;5087969;28;20028;-78
2022/10/31 02:34:42;;;;;;;18.65;14.18;;;12.00;99.90;;;;;;5090710;28;20469;-78
2022/10/31 02:37:12;;;;;;;14.40;12.93;;;11.90;99.90;;;;;;5107554;28;20054;-78
2022/10/31 02:39:56;;;;;;;19.27;17.00;;;11.90;99.90;;;;;;5105961;28;20036;-78
2022/10/31 02:43:03;;;;;;;21.40;13.93;;;11.90;99.90;;;;;;5092322;28;20032;-77
2022/10/31 02:45:42;;;;;;;23.92;15.38;;;11.80;99.90;;;;;;5090633;28;20031;-78
2022/10/31 02:48:19;;;;;;;20.42;16.90;;;11.90;99.90;;;;;;5090473;28;20027;-77
2022/10/31 02:50:54;;;;;;;20.77;16.13;;;11.90;99.90;;;;;;5107516;28;20031;-77
2022/10/31 02:53:19;;;;;;;20.25;16.92;;;11.90;99.90;;;;;;5087032;28;20067;-77
2022/10/31 02:55:56;;;;;;;26.55;14.98;;;12.00;99.90;;;;;;5086972;28;20021;-77
2022/10/31 02:58:26;;;;;;;21.33;14.68;;;11.90;99.90;;;;;;5086976;28;20032;-77
2022/10/31 03:01:11;;;;;;;16.67;15.02;;;11.90;99.90;;;;;;5070323;28;20092;-78
2022/10/31 03:04:04;;;;;;;20.67;15.75;;;12.00;99.90;;;;;;5087085;28;20039;-78
2022/10/31 03:06:38;;;;;;;19.85;16.00;;;12.00;99.90;;;;;;5086750;28;20059;-77
2022/10/31 03:09:08;;;;;;;22.02;15.32;;;12.10;99.90;;;;;;5088156;28;20052;-77
2022/10/31 03:11:52;;;;;;;17.67;15.75;;;12.10;99.90;;;;;;5086904;28;20028;-77
2022/10/31 03:14:35;;;;;;;20.33;14.35;;;12.00;99.90;;;;;;5086689;28;20028;-77
2022/10/31 03:17:06;;;;;;;18.15;14.63;;;12.00;99.90;;;;;;5069739;28;20032;-77
2022/10/31 03:19:38;;;;;;;17.60;13.77;;;11.90;99.90;;;;;;5086380;28;20036;-78
2022/10/31 03:22:14;;;;;;;16.83;14.18;;;11.90;99.90;;;;;;5090487;28;20058;-78
2022/10/31 03:24:41;;;;;;;22.13;15.50;;;11.90;99.90;;;;;;5086581;28;20044;-77
2022/10/31 03:27:10;;;;;;;23.10;14.95;;;11.80;99.90;;;;;;5086323;28;20092;-77
2022/10/31 03:29:40;;;;;;;20.65;13.07;;;11.80;99.90;;;;;;5086028;28;20029;-78
2022/10/31 03:32:07;;;;;;;15.73;11.50;;;11.70;99.90;;;;;;5086159;28;20035;-77
2022/10/31 03:34:36;;;;;;;13.52;11.40;;;11.70;99.90;;;;;;5086412;28;20048;-77
2022/10/31 03:37:04;;;;;;;14.52;12.50;;;11.70;99.90;;;;;;5087244;28;20128;-77
2022/10/31 03:39:32;;;;;;;14.63;13.07;;;11.60;99.90;;;;;;5086124;28;20051;-78
2022/10/31 03:42:15;;;;;;;19.58;12.40;;;11.50;99.90;;;;;;5069421;28;20032;-78
2022/10/31 03:44:52;;;;;;;13.73;12.27;;;11.40;99.90;;;;;;5069571;28;20032;-77
2022/10/31 03:47:18;;;;;;;18.75;13.98;;;11.30;99.90;;;;;;5085996;28;20024;-78
2022/10/31 03:49:47;;;;;;;21.73;16.37;;;11.30;99.90;;;;;;5086018;28;20090;-77
2022/10/31 03:52:25;;;;;;;17.55;14.30;;;11.30;99.90;;;;;;5078845;28;20473;-77
2022/10/31 03:55:09;;;;;;;16.52;14.23;;;11.30;99.90;;;;;;5089482;28;20028;-77
2022/10/31 03:57:52;;;;;;;18.75;14.23;;;11.20;99.90;;;;;;5089186;28;20377;-77
2022/10/31 04:00:19;;;;;;;17.27;12.43;;;11.20;99.90;;;;;;5089009;28;20051;-77
2022/10/31 04:03:17;;;;;;;19.38;14.52;;;11.20;99.90;;;;;;5105810;28;20043;-77
2022/10/31 04:05:46;;;;;;;;;;;11.10;99.90;;;;;;5092217;28;20040;-77
2022/10/31 04:08:19;;;;;;;15.38;13.32;;;11.10;99.90;;;;;;5085417;28;19909;-77
2022/10/31 04:10:49;;;;;;;14.18;12.88;;;11.10;99.90;;;;;;5068786;28;20036;-77
2022/10/31 04:13:21;;;;;;;16.25;12.88;;;11.10;99.90;;;;;;5085537;28;20048;-77
2022/10/31 04:15:56;;;;;;;20.38;13.20;;;11.00;99.90;;;;;;5085659;28;20025;-77
2022/10/31 04:18:23;;;;;;;24.92;16.70;;;11.00;99.90;;;;;;5085185;28;20036;-77
2022/10/31 04:20:49;;;;;;;17.52;12.65;;;10.90;99.90;;;;;;5085283;28;20025;-77
2022/10/31 04:23:22;;;;;;;17.83;15.18;;;10.90;99.90;;;;;;5097655;28;20085;-77
2022/10/31 04:25:49;;;;;;;19.17;15.38;;;11.00;99.90;;;;;;5085377;28;20027;-77
2022/10/31 04:28:16;;;;;;;16.33;14.60;;;11.00;99.90;;;;;;5068679;28;20025;-77
2022/10/31 04:30:42;;;;;;;18.48;14.73;;;11.10;99.90;;;;;;5068661;28;20025;-77
2022/10/31 04:33:08;;;;;;;19.60;14.52;;;11.10;99.90;;;;;;5068434;28;20557;-77
2022/10/31 04:35:34;;;;;;;16.80;13.90;;;11.20;99.90;;;;;;5068358;28;20123;-77
2022/10/31 04:38:00;;;;;;;24.38;15.68;;;11.20;99.90;;;;;;5085139;28;20081;-77
2022/10/31 04:40:26;;;;;;;16.52;14.77;;;11.20;99.90;;;;;;5084816;28;20028;-77
2022/10/31 04:43:15;;;;;;;18.95;13.07;;;11.30;99.90;;;;;;5071669;28;20032;-76
2022/10/31 04:45:43;;;;;;;18.73;14.50;;;11.30;99.90;;;;;;5068422;28;20029;-77
2022/10/31 04:48:09;;;;;;;17.95;14.25;;;11.40;99.90;;;;;;5085067;28;20063;-77
2022/10/31 04:50:36;;;;;;;19.73;15.00;;;11.40;99.90;;;;;;5067864;28;20020;-77
2022/10/31 04:53:02;;;;;;;14.32;12.95;;;11.30;99.90;;;;;;5087966;28;20035;-77
2022/10/31 04:55:33;;;;;;;16.98;13.60;;;11.20;99.90;;;;;;5105093;28;20028;-77
2022/10/31 04:58:19;;;;;;;12.70;10.98;;;11.20;99.90;;;;;;5091098;28;20378;-77
2022/10/31 05:00:45;;;;;;;13.65;11.90;;;11.20;99.90;;;;;;5088298;28;20027;-77
2022/10/31 05:03:11;;;;;;;16.08;10.73;;;11.10;99.90;;;;;;5104799;28;20078;-77
2022/10/31 05:05:37;;;;;;;15.35;12.30;;;11.10;99.90;;;;;;5087951;28;20024;-77
2022/10/31 05:08:03;;;;;;;23.17;12.63;;;11.00;99.90;;;;;;5088249;28;20109;-77
2022/10/31 05:10:31;;;;;;;17.30;15.35;;;10.90;99.90;;;;;;5088299;28;20099;-77
2022/10/31 05:13:01;;;;;;;15.45;12.95;;;10.90;99.90;;;;;;5087378;28;20028;-77
2022/10/31 05:15:56;;;;;;;20.95;15.68;;;10.80;99.90;;;;;;5048620;28;20046;-77
2022/10/31 05:18:41;;;;;;;18.05;14.35;;;10.80;99.90;;;;;;5086012;28;20131;-77
2022/10/31 05:21:13;;;;;;;20.30;15.40;;;10.80;99.90;;;;;;5075441;28;20044;-76
2022/10/31 05:23:47;;;;;;;20.98;14.77;;;10.70;99.90;;;;;;5067332;28;20035;-77
2022/10/31 05:26:13;;;;;;;15.38;13.13;;;10.70;99.90;;;;;;5066298;28;20058;-77
2022/10/31 05:28:39;;;;;;;16.05;13.48;;;10.60;99.90;;;;;;5071355;28;20024;-78
2022/10/31 05:31:05;;;;;;;20.92;14.05;;;10.60;99.90;;;;;;5071120;28;20032;-77
2022/10/31 05:33:31;;;;;;;15.32;13.45;;;10.50;99.90;;;;;;5085496;28;20081;-77
2022/10/31 05:36:16;;;;;;;15.05;12.15;;;10.50;99.90;;;;;;5089555;28;20043;-77
2022/10/31 05:39:03;;;;;;;15.18;12.85;;;10.40;99.90;;;;;;5070097;28;20378;-77
2022/10/31 05:41:49;;;;;;;14.82;12.85;;;10.40;99.90;;;;;;5083665;28;20071;-77
2022/10/31 05:44:19;;;;;;;21.08;15.13;;;10.30;99.90;;;;;;5097290;28;20031;-77
2022/10/31 05:47:05;;;;;;;13.88;12.65;;;10.40;99.90;;;;;;5086079;28;20031;-77
2022/10/31 05:49:50;;;;;;;21.23;16.33;;;10.40;99.90;;;;;;5082047;28;20047;-77
2022/10/31 05:52:34;;;;;;;16.20;13.65;;;10.40;99.90;;;;;;5098137;28;20042;-77
2022/10/31 05:55:07;;;;;;;26.58;11.88;;;10.40;99.90;;;;;;5072173;28;20021;-77
2022/10/31 05:57:34;;;;;;;31.10;11.43;;;10.40;99.90;;;;;;5085066;28;20024;-77
2022/10/31 06:00:00;;;;;;;24.50;10.68;;;10.40;99.90;;;;;;5084129;28;20020;-77
2022/10/31 06:02:27;;;;;;;10.90;9.05;;;10.30;99.90;;;;;;5080968;28;20044;-77
2022/10/31 06:05:16;;;;;;;26.37;9.93;;;10.30;99.90;;;;;;5073282;28;20025;-77
2022/10/31 06:07:42;;;;;;;12.82;11.63;;;10.30;99.90;;;;;;5096256;28;20027;-77
2022/10/31 06:10:09;;;;;;;14.32;11.23;;;10.30;99.90;;;;;;5089717;28;20024;-77
2022/10/31 06:12:40;;;;;;;20.27;12.07;;;10.40;99.90;;;;;;5086750;28;20012;-77
2022/10/31 06:15:19;;;;;;;20.35;9.98;;;10.30;99.90;;;;;;5105862;28;20065;-77
2022/10/31 06:17:46;;;;;;;11.90;9.90;;;10.30;99.90;;;;;;5091661;28;20028;-77
2022/10/31 06:20:24;;;;;;;11.55;10.30;;;10.20;99.90;;;;;;5090778;28;20488;-77
2022/10/31 06:23:03;;;;;;;14.10;11.50;;;10.20;99.90;;;;;;5092125;28;20040;-77
2022/10/31 06:25:32;;;;;;;10.55;9.48;;;10.20;99.90;;;;;;5087156;28;20024;-77
2022/10/31 06:27:58;;;;;;;12.95;10.55;;;10.10;99.90;;;;;;5074307;28;20033;-77
2022/10/31 06:30:31;;;;;;;15.80;13.10;;;10.00;99.90;;;;;;5084222;28;20050;-77
2022/10/31 06:33:06;;;;;;;18.30;12.75;;;10.10;99.90;;;;;;5094960;28;20028;-77
2022/10/31 06:35:35;;;;;;;15.82;12.70;;;10.20;99.90;;;;;;5072563;28;20028;-77
2022/10/31 06:38:01;;;;;;;39.72;16.88;;;10.20;99.90;;;;;;5089532;28;20024;-77
2022/10/31 06:40:36;;;;;;;38.63;14.85;;;10.20;99.90;;;;;;5075461;28;20025;-77
2022/10/31 06:43:15;;;;;;;24.75;13.45;;;10.20;99.90;;;;;;5085200;28;20119;-77
2022/10/31 06:45:41;;;;;;;35.35;14.35;;;10.20;99.90;;;;;;5058404;28;20028;-77
2022/10/31 06:48:16;;;;;;;22.50;13.00;;;10.20;99.90;;;;;;5085330;28;20036;-77
2022/10/31 06:51:02;;;;;;;50.53;20.42;;;10.20;99.90;;;;;;5089108;28;20054;-77
2022/10/31 06:53:31;;;;;;;78.82;20.92;;;10.30;99.90;;;;;;5104301;28;20076;-78
2022/10/31 06:55:57;;;;;;;30.63;18.05;;;10.30;99.90;;;;;;5101468;28;20063;-77
2022/10/31 06:58:23;;;;;;;39.90;17.50;;;10.30;99.90;;;;;;5070197;28;20034;-77
2022/10/31 07:00:50;;;;;;;30.27;16.20;;;10.30;99.90;;;;;;5096651;28;20103;-77
2022/10/31 07:03:16;;;;;;;37.25;17.75;;;10.30;99.90;;;;;;5053479;28;20515;-77
2022/10/31 07:05:43;;;;;;;27.73;15.68;;;10.40;99.90;;;;;;5090629;28;20055;-77
2022/10/31 07:08:11;;;;;;;30.65;15.98;;;10.40;99.90;;;;;;5093749;28;20073;-76
2022/10/31 07:10:38;;;;;;;42.88;17.27;;;10.50;99.90;;;;;;5077832;28;20029;-77
2022/10/31 07:13:06;;;;;;;41.63;16.95;;;10.50;99.90;;;;;;5072424;28;20043;-77
2022/10/31 07:15:37;;;;;;;41.97;18.70;;;10.50;99.90;;;;;;5096851;28;20024;-77
2022/10/31 07:18:06;;;;;;;23.15;14.75;;;10.60;99.90;;;;;;5096774;28;20035;-76
2022/10/31 07:20:33;;;;;;;23.75;15.98;;;10.70;99.90;;;;;;5086238;28;20050;-77
2022/10/31 07:23:00;;;;;;;30.35;16.48;;;10.70;99.90;;;;;;5095480;28;20039;-77
2022/10/31 07:25:27;;;;;;;29.55;18.45;;;10.80;99.90;;;;;;5097082;28;20028;-77
2022/10/31 07:28:33;;;;;;;21.13;16.15;;;10.90;99.90;;;;;;5071452;28;20024;-77
2022/10/31 07:31:00;;;;;;;23.52;16.48;;;11.00;99.90;;;;;;5095817;28;20035;-77
2022/10/31 07:33:26;;;;;;;18.52;13.15;;;11.20;99.90;;;;;;5096581;28;20029;-77
2022/10/31 07:36:27;;;;;;;15.60;14.05;;;11.30;99.90;;;;;;5071674;28;20027;-77
2022/10/31 07:38:58;;;;;;;17.30;14.93;;;11.30;99.90;;;;;;5084877;28;20078;-77
2022/10/31 07:41:24;;;;;;;26.38;12.93;;;11.50;99.90;;;;;;5095206;28;20043;-77
2022/10/31 07:43:50;;;;;;;19.58;15.10;;;11.60;99.90;;;;;;5063794;28;20032;-76
2022/10/31 07:46:16;;;;;;;15.68;11.60;;;11.80;99.90;;;;;;5102536;28;20020;-77
2022/10/31 07:49:14;;;;;;;16.30;12.60;;;12.00;99.90;;;;;;5096654;28;20041;-77
2022/10/31 07:52:02;;;;;;;12.90;11.68;;;12.20;99.90;;;;;;5078842;28;20040;-77
2022/10/31 07:54:46;;;;;;;14.43;12.85;;;12.40;99.90;;;;;;5098002;28;20043;-76
2022/10/31 07:57:12;;;;;;;15.25;13.02;;;12.50;99.90;;;;;;5084339;28;20032;-77
2022/10/31 07:59:38;;;;;;;13.10;11.30;;;12.70;99.90;;;;;;5095113;28;20012;-77
2022/10/31 08:02:08;;;;;;;11.98;10.88;;;13.30;99.90;;;;;;5098931;28;20048;-77
2022/10/31 08:04:46;;;;;;;15.40;11.57;;;13.80;99.90;;;;;;5097711;28;20085;-77
2022/10/31 08:07:44;;;;;;;12.07;9.35;;;13.80;99.90;;;;;;5097545;28;20032;-77
2022/10/31 08:10:16;;;;;;;11.88;10.88;;;13.40;99.90;;;;;;5095216;28;20028;-77
2022/10/31 08:12:42;;;;;;;10.95;9.82;;;13.20;99.90;;;;;;5087740;28;20115;-77
2022/10/31 08:15:08;;;;;;;11.18;10.00;;;13.10;99.90;;;;;;5085066;28;20073;-77
2022/10/31 08:17:35;;;;;;;12.90;11.60;;;13.00;99.90;;;;;;5084893;28;20025;-77
2022/10/31 08:20:02;;;;;;;11.27;10.27;;;12.80;99.90;;;;;;5085644;28;20024;-77
2022/10/31 08:22:34;;;;;;;12.80;11.52;;;12.70;99.90;;;;;;5109939;28;20025;-77
2022/10/31 08:25:01;;;;;;;12.63;11.10;;;12.80;99.90;;;;;;5093344;28;20083;-77
2022/10/31 08:27:27;;;;;;;14.10;12.73;;;12.90;99.90;;;;;;5095835;28;20020;-77
2022/10/31 08:29:55;;;;;;;11.10;9.90;;;13.00;99.90;;;;;;5094989;28;20021;-77
2022/10/31 08:32:22;;;;;;;16.58;13.05;;;13.10;99.90;;;;;;5085667;28;20027;-77
2022/10/31 08:35:06;;;;;;;19.88;13.75;;;13.20;99.90;;;;;;5094904;28;20024;-77
2022/10/31 08:37:55;;;;;;;14.82;13.18;;;13.30;99.90;;;;;;5068297;28;20063;-77
2022/10/31 08:40:24;;;;;;;17.20;13.40;;;13.40;99.90;;;;;;5095755;28;20028;-76
2022/10/31 08:43:05;;;;;;;21.02;16.83;;;13.50;99.90;;;;;;5074312;28;20037;-77
2022/10/31 08:45:33;;;;;;;20.23;16.73;;;13.60;99.90;;;;;;5095478;28;20016;-77
2022/10/31 08:48:01;;;;;;;28.92;17.25;;;13.70;99.90;;;;;;5085674;28;20039;-77
2022/10/31 08:50:30;;;;;;;18.70;16.77;;;14.10;99.90;;;;;;5092855;28;20046;-77
2022/10/31 08:53:13;;;;;;;20.17;16.85;;;14.80;99.90;;;;;;5094660;28;20052;-76
2022/10/31 08:55:41;;;;;;;28.88;15.23;;;15.30;99.90;;;;;;5095494;28;20039;-79
2022/10/31 08:58:22;;;;;;;20.20;16.58;;;15.40;99.90;;;;;;5096550;28;20541;-76
2022/10/31 09:00:52;;;;;;;;;;;15.30;99.90;;;;;;5079865;28;20024;-77
2022/10/31 09:03:25;;;;;;;38.72;15.02;;;15.20;99.90;;;;;;5094723;28;19926;-77
2022/10/31 09:05:56;;;;;;;29.38;18.05;;;15.20;99.90;;;;;;5095309;28;20057;-76
2022/10/31 09:08:22;;;;;;;18.23;14.60;;;15.40;99.90;;;;;;5095698;28;20047;-79
2022/10/31 09:10:48;;;;;;;21.48;14.98;;;15.60;99.90;;;;;;5068669;28;20024;-78
2022/10/31 09:13:19;;;;;;;;;;;15.80;99.90;;;;;;5085982;28;20048;-75
2022/10/31 09:16:21;;;;;;;16.45;13.50;;;16.20;99.90;;;;;;5061455;28;19999;-78
2022/10/31 09:18:47;;;;;;;21.75;16.05;;;16.70;99.90;;;;;;5082888;28;20048;-78
2022/10/31 09:21:15;;;;;;;24.58;17.20;;;16.80;99.90;;;;;;5083240;28;20040;-78
2022/10/31 09:23:43;;;;;;;19.52;14.90;;;16.90;99.90;;;;;;5089444;28;20029;-76
2022/10/31 09:26:10;;;;;;;20.63;17.08;;;16.80;99.90;;;;;;5090148;28;20020;-78
2022/10/31 09:28:38;;;;;;;22.17;17.50;;;16.80;99.90;;;;;;5083879;28;20036;-77
2022/10/31 09:31:09;;;;;;;23.88;17.48;;;16.50;99.90;;;;;;5095289;28;20013;-77
2022/10/31 09:33:53;;;;;;;29.40;19.55;;;16.30;99.90;;;;;;5096624;28;20123;-77
2022/10/31 09:36:40;;;;;;;29.10;19.70;;;16.10;99.90;;;;;;5087039;28;20048;-77
2022/10/31 09:39:10;;;;;;;25.63;20.38;;;15.90;99.90;;;;;;5090204;28;20020;-77
2022/10/31 09:41:59;;;;;;;27.35;20.13;;;16.00;99.90;;;;;;5071454;28;20047;-77
2022/10/31 09:44:35;;;;;;;34.10;21.55;;;16.10;99.90;;;;;;5094422;28;20032;-78
2022/10/31 09:47:26;;;;;;;34.30;20.27;;;16.00;99.90;;;;;;5088183;28;20111;-77
2022/10/31 09:50:23;;;;;;;24.75;19.60;;;16.00;99.90;;;;;;5094864;28;20024;-77
2022/10/31 09:53:23;;;;;;;26.75;21.63;;;16.00;99.90;;;;;;5092270;28;20039;-78
2022/10/31 09:55:52;;;;;;;31.52;18.67;;;16.20;99.90;;;;;;5068136;28;20037;-77
2022/10/31 09:58:23;;;;;;;30.42;23.17;;;16.50;99.90;;;;;;5103174;28;20031;-77
2022/10/31 10:00:49;;;;;;;38.13;21.92;;;17.10;99.90;;;;;;5094167;28;20513;-77
2022/10/31 10:03:38;;;;;;;29.17;19.95;;;17.90;99.90;;;;;;5073281;28;20112;-77
2022/10/31 10:06:28;;;;;;;31.35;20.50;;;18.40;99.90;;;;;;5104920;28;20036;-79
2022/10/31 10:09:13;;;;;;;28.35;20.83;;;19.40;99.90;;;;;;5096240;28;20032;-78
2022/10/31 10:12:28;;;;;;;24.13;20.38;;;20.10;99.90;;;;;;5087806;28;20020;-78
2022/10/31 10:15:09;;;;;;;33.50;21.55;;;20.80;99.90;;;;;;5102907;28;20039;-77
2022/10/31 10:17:38;;;;;;;32.05;20.65;;;20.30;99.90;;;;;;5091364;28;20036;-77
2022/10/31 10:20:23;;;;;;;42.28;21.90;;;19.60;99.90;;;;;;5094666;28;20376;-77
2022/10/31 10:22:55;;;;;;;30.63;21.02;;;19.00;99.90;;;;;;5106056;28;20434;-78
2022/10/31 10:25:40;;;;;;;30.70;20.60;;;18.70;99.90;;;;;;5092149;28;20028;-77
2022/10/31 10:28:19;;;;;;;27.77;20.63;;;18.60;99.90;;;;;;5102936;28;20024;-77
2022/10/31 10:30:48;;;;;;;34.00;23.83;;;18.30;99.90;;;;;;5097107;28;20025;-77
2022/10/31 10:33:23;;;;;;;38.95;26.13;;;18.10;99.90;;;;;;5089780;28;20037;-77
2022/10/31 10:36:07;;;;;;;32.15;22.48;;;18.20;99.90;;;;;;5087826;28;20024;-77
2022/10/31 10:38:49;;;;;;;35.72;22.30;;;18.30;99.90;;;;;;5092874;28;20023;-77
2022/10/31 10:41:18;;;;;;;33.95;21.67;;;18.40;99.90;;;;;;5105573;28;20043;-77
2022/10/31 10:43:45;;;;;;;34.20;24.48;;;18.30;99.90;;;;;;5109070;28;20047;-77
2022/10/31 10:49:05;;;;;;;33.60;24.50;;;18.20;99.90;;;;;;5093830;28;20035;-77
2022/10/31 10:51:51;;;;;;;36.15;22.92;;;18.30;99.90;;;;;;5091818;28;20380;-77
2022/10/31 10:54:20;;;;;;;34.30;24.50;;;18.20;99.90;;;;;;5094277;28;20081;-77
2022/10/31 10:57:08;;;;;;;36.85;24.27;;;18.30;99.90;;;;;;5089242;28;20052;-77
2022/10/31 10:59:34;;;;;;;58.85;24.40;;;18.10;99.90;;;;;;5088199;28;20035;-77
2022/10/31 11:02:00;;;;;;;28.50;23.55;;;18.10;99.90;;;;;;5104602;28;20047;-77
2022/10/31 11:04:31;;;;;;;33.63;23.50;;;18.10;99.90;;;;;;5088999;28;20024;-77
2022/10/31 11:07:05;;;;;;;36.50;24.15;;;18.10;99.90;;;;;;5090910;28;20448;-76
2022/10/31 11:09:31;;;;;;;35.35;23.23;;;18.00;99.90;;;;;;5094851;28;20100;-77
2022/10/31 11:11:58;;;;;;;32.13;21.42;;;18.20;99.90;;;;;;5098318;28;20064;-78
2022/10/31 11:14:25;;;;;;;30.05;21.73;;;18.30;99.90;;;;;;5094052;28;20127;-76
2022/10/31 11:17:07;;;;;;;28.80;20.60;;;18.20;99.90;;;;;;5105261;28;20083;-76
2022/10/31 11:19:33;;;;;;;30.83;21.58;;;18.30;99.90;;;;;;5088952;28;20099;-77
2022/10/31 11:22:16;;;;;;;23.17;19.83;;;18.40;99.90;;;;;;5091840;28;20033;-77
2022/10/31 11:24:42;;;;;;;29.25;20.85;;;18.50;99.90;;;;;;5102468;28;20031;-79
2022/10/31 11:27:16;;;;;;;31.40;20.95;;;18.60;99.90;;;;;;5088733;28;20020;-77
2022/10/31 11:29:42;;;;;;;32.28;19.92;;;18.70;99.90;;;;;;5086703;28;20027;-77
2022/10/31 11:32:20;;;;;;;32.80;18.20;;;18.70;99.90;;;;;;5093339;28;20024;-77
2022/10/31 11:34:52;;;;;;;32.75;18.55;;;18.70;99.90;;;;;;5089988;28;20056;-78
2022/10/31 11:37:25;;;;;;;25.30;19.23;;;18.70;99.90;;;;;;5096733;28;20039;-77
2022/10/31 11:39:58;;;;;;;27.23;18.70;;;18.40;99.90;;;;;;5085871;28;20387;-76
2022/10/31 11:42:29;;;;;;;24.75;18.55;;;18.40;99.90;;;;;;5104030;28;20039;-77
2022/10/31 11:44:56;;;;;;;22.02;18.75;;;18.50;99.90;;;;;;5088761;28;20020;-77
2022/10/31 11:47:29;;;;;;;23.17;18.75;;;18.40;99.90;;;;;;5083022;28;20035;-77
2022/10/31 11:49:57;;;;;;;20.35;18.23;;;18.50;99.90;;;;;;5099555;28;20025;-77
2022/10/31 11:52:29;;;;;;;26.85;17.98;;;18.60;99.90;;;;;;5081766;28;20040;-76
2022/10/31 11:55:03;;;;;;;22.67;16.45;;;18.70;99.90;;;;;;5069176;28;20043;-77
2022/10/31 11:57:31;;;;;;;34.67;17.05;;;18.80;99.90;;;;;;5088258;28;20495;-76
2022/10/31 12:00:00;;;;;;;22.58;18.80;;;18.90;99.90;;;;;;5069702;28;20024;-76
2022/10/31 12:02:27;;;;;;;19.25;16.50;;;18.80;99.90;;;;;;5085446;28;20059;-77
2022/10/31 12:05:06;;;;;;;28.98;18.45;;;18.80;99.90;;;;;;5069249;28;20115;-77
2022/10/31 12:07:32;;;;;;;29.35;16.63;;;18.90;99.90;;;;;;5068537;28;20112;-76
2022/10/31 12:09:58;;;;;;;26.17;17.48;;;18.90;99.90;;;;;;5087651;28;20020;-77
2022/10/31 12:12:40;;;;;;;19.50;15.73;;;19.00;99.90;;;;;;5059829;28;20071;-77
2022/10/31 12:15:06;;;;;;;23.67;17.23;;;19.10;99.90;;;;;;5089345;28;20469;-77
2022/10/31 12:17:50;;;;;;;19.23;15.88;;;19.20;99.90;;;;;;5085254;28;20035;-77
2022/10/31 12:20:37;;;;;;;21.33;15.13;;;19.00;99.90;;;;;;5087371;28;20037;-76
2022/10/31 12:23:18;;;;;;;21.33;14.77;;;18.70;99.90;;;;;;5086390;28;20381;-76
2022/10/31 12:25:47;;;;;;;;;;;18.70;99.90;;;;;;5068747;28;20053;-76
2022/10/31 12:28:25;;;;;;;19.00;13.50;;;18.60;99.90;;;;;;5081966;28;19904;-77
2022/10/31 12:31:17;;;;;;;18.58;13.07;;;18.30;99.90;;;;;;5089613;28;20046;-76
2022/10/31 12:34:31;;;;;;;21.13;13.98;;;18.20;99.90;;;;;;5086183;28;20096;-78
2022/10/31 12:37:17;;;;;;;23.35;15.43;;;17.90;99.90;;;;;;5084758;28;20111;-78
2022/10/31 12:39:56;;;;;;;64.82;21.23;;;17.90;99.90;;;;;;5073948;28;20607;-79
2022/10/31 12:42:49;;;;;;;23.88;14.00;;;17.90;99.90;;;;;;5085794;28;20082;-77
2022/10/31 12:45:34;;;;;;;21.02;12.90;;;17.80;99.90;;;;;;5080698;28;20046;-77
2022/10/31 12:48:18;;;;;;;22.63;13.82;;;17.80;99.90;;;;;;5084767;28;20031;-75
2022/10/31 12:51:03;;;;;;;18.75;11.45;;;17.90;99.90;;;;;;5085941;28;20024;-76
2022/10/31 12:53:47;;;;;;;20.70;11.88;;;17.90;99.90;;;;;;5104018;28;20505;-77
2022/10/31 12:56:41;;;;;;;22.80;11.45;;;17.90;99.90;;;;;;5090368;28;20039;-76
2022/10/31 12:59:45;;;;;;;31.80;13.77;;;17.80;99.90;;;;;;5097046;28;20442;-76
2022/10/31 13:02:23;;;;;;;16.90;10.77;;;17.90;99.90;;;;;;5088776;28;20404;-77
2022/10/31 13:05:18;;;;;;;18.55;10.75;;;17.90;99.90;;;;;;5104230;28;20058;-77